Time;durP1;ratioP1;P1;durP2;ratioP2;P2;SDS_P1;SDS_P2;PMS_P1;PMS_P2;Temp;Humidity;BMP_temperature;BMP_pressure;BME280_temperature;BME280_humidity;BME280_pressure;Samples;Min_cycle;Max_cycle;Signal;HPM_P1;HPM_P2
2022/05/22 00:00:22;;;;;;;8.65;5.47;;;;;;;17.13;52.24;101831.75;5134668;27;20043;-59
2022/05/22 00:02:49;;;;;;;9.27;5.10;;;;;;;17.09;52.18;101830.28;5134284;27;20043;-59
2022/05/22 00:05:20;;;;;;;11.25;5.30;;;;;;;17.11;52.35;101836.44;5134505;27;20046;-59
2022/05/22 00:07:47;;;;;;;6.78;5.15;;;;;;;17.13;52.45;101831.75;5134311;27;20130;-59
2022/05/22 00:10:14;;;;;;;11.20;5.20;;;;;;;17.15;52.45;101835.19;5134391;27;20031;-59
2022/05/22 00:12:43;;;;;;;10.18;5.82;;;;;;;17.15;52.34;101820.78;5133966;27;20511;-59
2022/05/22 00:15:14;;;;;;;9.75;5.32;;;;;;;17.13;52.28;101815.47;5134321;27;20046;-59
2022/05/22 00:17:41;;;;;;;9.88;5.32;;;;;;;17.09;52.42;101814.00;5134533;27;20043;-58
2022/05/22 00:20:09;;;;;;;10.93;5.32;;;;;;;17.07;52.52;101810.50;5134286;27;20047;-59
2022/05/22 00:22:36;;;;;;;8.63;5.40;;;;;;;17.05;52.40;101807.06;5133885;27;20051;-59
2022/05/22 00:25:05;;;;;;;9.27;5.95;;;;;;;17.05;52.54;101807.06;5133893;27;20055;-59
2022/05/22 00:27:32;;;;;;;7.63;4.90;;;;;;;17.06;52.54;101799.78;5133840;27;20066;-59
2022/05/22 00:29:59;;;;;;;9.90;5.78;;;;;;;17.07;52.39;101802.38;5134002;27;20484;-59
2022/05/22 00:32:26;;;;;;;9.02;5.88;;;;;;;17.08;52.50;101797.81;5133776;27;20067;-59
2022/05/22 00:34:54;;;;;;;8.38;5.25;;;;;;;17.06;52.70;101792.50;5133711;27;20393;-59
2022/05/22 00:37:23;;;;;;;10.27;5.53;;;;;;;17.05;52.66;101792.63;5132115;27;20463;-59
2022/05/22 00:39:53;;;;;;;7.55;5.55;;;;;;;17.02;52.75;101782.03;5134222;27;20058;-59
2022/05/22 00:42:23;;;;;;;9.05;5.22;;;;;;;16.98;52.83;101792.28;5134118;27;20059;-59
2022/05/22 00:44:53;;;;;;;7.70;5.35;;;;;;;16.91;52.68;101782.94;5115400;27;20046;-59
2022/05/22 00:47:21;;;;;;;9.35;5.60;;;;;;;16.90;52.67;101789.34;5133157;27;20047;-59
2022/05/22 00:49:49;;;;;;;13.68;5.78;;;;;;;16.89;52.62;101795.75;5133820;27;20043;-59
2022/05/22 00:52:26;;;;;;;9.95;5.50;;;;;;;16.88;52.73;101790.47;5134223;27;20049;-59
2022/05/22 00:55:26;;;;;;;9.40;5.63;;;;;;;16.84;52.92;101782.56;5133565;27;20042;-59
2022/05/22 00:58:01;;;;;;;10.52;5.22;;;;;;;16.83;52.89;101782.69;5095318;27;20377;-60
2022/05/22 01:00:33;;;;;;;8.90;5.93;;;;;;;16.81;52.79;101782.84;5132907;27;20043;-59
2022/05/22 01:06:03;;;;;;;9.07;5.57;;;;;;;16.76;52.72;101790.47;5134097;27;20046;-59
2022/05/22 01:08:31;;;;;;;16.23;5.30;;;;;;;16.75;52.73;101783.34;5133203;27;20051;-59
2022/05/22 01:11:05;;;;;;;12.00;5.60;;;;;;;16.72;52.88;101778.16;5133403;28;20130;-59
2022/05/22 01:13:36;;;;;;;10.27;5.60;;;;;;;16.69;53.14;101770.28;5114266;28;20047;-59
2022/05/22 01:16:05;;;;;;;8.90;5.28;;;;;;;16.61;53.23;101767.31;5133070;28;20051;-59
2022/05/22 01:18:50;;;;;;;11.68;6.10;;;;;;;16.53;53.54;101767.06;5114650;28;20062;-58
2022/05/22 01:21:21;;;;;;;7.38;5.03;;;;;;;16.53;53.26;101770.63;5133111;28;20039;-59
2022/05/22 01:23:50;;;;;;;10.55;5.97;;;;;;;16.54;53.07;101782.34;5114274;28;20057;-60
2022/05/22 01:26:25;;;;;;;8.30;5.50;;;;;;;16.53;53.26;101781.47;5093966;28;20071;-59
2022/05/22 01:29:03;;;;;;;9.02;5.30;;;;;;;16.49;53.26;101781.84;5094218;28;20094;-59
2022/05/22 01:31:30;;;;;;;10.15;5.72;;;;;;;16.41;53.10;101781.63;5094055;28;20405;-59
2022/05/22 01:34:04;;;;;;;7.93;5.05;;;;;;;16.40;53.20;101788.03;5125549;28;20061;-59
2022/05/22 01:36:31;;;;;;;7.45;5.18;;;;;;;16.40;53.37;101775.34;5113981;28;20100;-59
2022/05/22 01:38:58;;;;;;;8.52;5.50;;;;;;;16.40;53.10;101779.91;5114142;28;20408;-59
2022/05/22 01:41:34;;;;;;;7.38;5.60;;;;;;;16.37;53.28;101764.75;5113777;28;20035;-59
2022/05/22 01:44:05;;;;;;;7.43;5.13;;;;;;;16.37;53.25;101758.44;5113811;28;20039;-59
2022/05/22 01:46:32;;;;;;;8.40;5.72;;;;;;;16.37;53.40;101748.47;5113893;28;20051;-59
2022/05/22 01:49:07;;;;;;;10.57;5.82;;;;;;;16.37;53.13;101756.59;5114056;28;20138;-59
2022/05/22 01:51:39;;;;;;;10.75;5.68;;;;;;;16.38;53.14;101761.03;5132240;28;20066;-59
2022/05/22 01:54:08;;;;;;;12.13;5.65;;;;;;;16.38;53.44;101755.63;5113752;28;20246;-59
2022/05/22 01:56:37;;;;;;;8.05;5.20;;;;;;;16.36;53.22;101746.75;5113874;28;20043;-59
2022/05/22 01:59:06;;;;;;;9.15;6.43;;;;;;;16.32;53.36;101739.81;5112809;28;20413;-59
2022/05/22 02:01:35;;;;;;;8.73;5.78;;;;;;;16.30;53.11;101738.22;5114697;28;20055;-58
2022/05/22 02:04:05;;;;;;;8.85;6.03;;;;;;;16.26;53.46;101745.75;5114245;28;20040;-59
2022/05/22 02:06:34;;;;;;;9.50;6.72;;;;;;;16.23;53.28;101745.97;5115499;28;20047;-59
2022/05/22 02:09:08;;;;;;;11.70;6.90;;;;;;;16.20;53.51;101747.09;5114176;28;20051;-59
2022/05/22 02:11:40;;;;;;;12.90;6.53;;;;;;;16.17;53.22;101747.34;5113362;28;20383;-59
2022/05/22 02:14:10;;;;;;;13.32;7.15;;;;;;;16.15;53.81;101756.56;5116612;27;20043;-59
2022/05/22 02:16:37;;;;;;;9.38;7.07;;;;;;;16.12;53.69;101751.41;5117489;27;20047;-59
2022/05/22 02:19:06;;;;;;;11.68;6.78;;;;;;;16.09;53.60;101741.69;5117427;27;20043;-59
2022/05/22 02:21:33;;;;;;;11.27;6.90;;;;;;;16.05;53.76;101742.91;5135974;27;20089;-59
2022/05/22 02:24:04;;;;;;;13.10;7.47;;;;;;;16.01;54.09;101727.88;5113259;28;20519;-59
2022/05/22 02:26:31;;;;;;;9.68;6.45;;;;;;;15.96;53.81;101730.09;5096743;28;20073;-59
2022/05/22 02:28:58;;;;;;;9.63;6.50;;;;;;;15.89;53.87;101728.84;5113860;28;20416;-59
2022/05/22 02:31:24;;;;;;;9.52;5.68;;;;;;;15.82;53.79;101725.78;5116707;27;20409;-59
2022/05/22 02:33:56;;;;;;;11.93;6.90;;;;;;;15.77;53.95;101722.56;5135704;27;20032;-60
2022/05/22 02:36:23;;;;;;;9.50;6.97;;;;;;;15.74;54.20;101721.94;5117000;27;20042;-59
2022/05/22 02:38:52;;;;;;;12.68;6.82;;;;;;;15.69;53.98;101716.03;5117092;27;20035;-59
2022/05/22 02:41:20;;;;;;;10.30;6.82;;;;;;;15.62;54.03;101717.50;5116962;27;20043;-59
2022/05/22 02:43:54;;;;;;;9.20;5.25;;;;;;;15.54;54.12;101715.31;5116992;27;20043;-60
2022/05/22 02:46:21;;;;;;;9.43;4.70;;;;;;;15.45;54.44;101710.63;5134751;27;20043;-58
2022/05/22 02:48:51;;;;;;;8.45;5.18;;;;;;;15.38;54.33;101714.78;5116755;27;20039;-59
2022/05/22 02:51:21;;;;;;;7.57;5.00;;;;;;;15.31;54.59;101714.41;5116615;27;20509;-59
2022/05/22 02:53:49;;;;;;;11.32;5.88;;;;;;;15.24;54.60;101711.31;5116543;27;20046;-60
2022/05/22 02:56:34;;;;;;;7.15;5.45;;;;;;;15.19;54.52;101705.38;5135459;27;20062;-58
2022/05/22 02:59:34;;;;;;;6.45;5.10;;;;;;;15.13;54.56;101694.19;5116230;27;20187;-58
2022/05/22 03:02:12;;;;;;;7.22;5.65;;;;;;;15.08;54.86;101699.06;5134962;27;20089;-58
2022/05/22 03:04:40;;;;;;;7.97;6.00;;;;;;;15.04;54.85;101700.28;5116272;27;20047;-59
2022/05/22 03:07:10;;;;;;;7.38;6.00;;;;;;;15.00;55.18;101704.22;5116358;27;20433;-59
2022/05/22 03:09:39;;;;;;;8.88;5.70;;;;;;;14.96;54.96;101710.84;5134533;27;20407;-59
2022/05/22 03:12:15;;;;;;;8.52;5.70;;;;;;;14.88;55.32;101704.16;5134123;27;20146;-58
2022/05/22 03:14:50;;;;;;;6.85;4.78;;;;;;;14.81;55.15;101704.72;5116259;27;20046;-58
2022/05/22 03:17:18;;;;;;;10.77;4.95;;;;;;;14.73;55.34;101708.00;5115898;27;20039;-59
2022/05/22 03:19:53;;;;;;;7.60;5.38;;;;;;;14.68;55.57;101710.16;5116262;27;20066;-58
2022/05/22 03:22:20;;;;;;;7.45;5.25;;;;;;;14.65;55.50;101710.41;5116050;27;20055;-58
2022/05/22 03:24:48;;;;;;;10.73;5.97;;;;;;;14.59;55.65;101694.63;5116264;27;20039;-59
2022/05/22 03:27:17;;;;;;;11.60;6.57;;;;;;;14.56;55.71;101700.28;5134322;27;20134;-58
2022/05/22 03:29:47;;;;;;;10.90;7.43;;;;;;;14.52;55.71;101685.25;5095536;28;20497;-58
2022/05/22 03:32:14;;;;;;;12.18;7.60;;;;;;;14.52;55.76;101686.13;5100053;27;20035;-58
2022/05/22 03:34:43;;;;;;;11.85;7.18;;;;;;;14.57;56.05;101686.63;5115549;27;20039;-58
2022/05/22 03:37:12;;;;;;;9.38;7.32;;;;;;;14.61;56.01;101687.28;5115563;27;20088;-58
2022/05/22 03:39:39;;;;;;;12.70;7.70;;;;;;;14.66;55.92;101689.63;5115626;27;20146;-59
2022/05/22 03:42:06;;;;;;;14.05;7.78;;;;;;;14.70;55.87;101691.13;5115458;27;20463;-59
2022/05/22 03:44:35;;;;;;;14.40;8.30;;;;;;;14.74;55.92;101687.22;5114209;27;20150;-58
2022/05/22 03:47:03;;;;;;;10.23;7.38;;;;;;;14.79;56.07;101690.44;5133951;27;20515;-58
2022/05/22 03:49:41;;;;;;;9.85;6.80;;;;;;;14.85;56.11;101696.25;5115353;27;20080;-58
2022/05/22 03:52:07;;;;;;;10.95;7.15;;;;;;;14.89;56.33;101686.97;5133667;27;20421;-58
2022/05/22 03:54:35;;;;;;;10.65;7.05;;;;;;;14.95;56.11;101682.91;5098332;27;20108;-59
2022/05/22 03:57:02;;;;;;;11.23;7.15;;;;;;;15.01;56.25;101682.44;5111401;28;20036;-59
2022/05/22 03:59:32;;;;;;;7.53;6.70;;;;;;;15.06;56.29;101674.84;5115187;27;20489;-58
2022/05/22 04:01:59;;;;;;;11.98;7.13;;;;;;;15.08;56.24;101670.19;5098572;27;20092;-59
2022/05/22 04:04:32;;;;;;;10.45;6.70;;;;;;;15.13;56.30;101670.69;5114823;27;20103;-59
2022/05/22 04:07:07;;;;;;;10.57;7.20;;;;;;;15.16;56.08;101670.44;5115477;27;20407;-58
2022/05/22 04:09:33;;;;;;;9.65;6.80;;;;;;;15.19;56.07;101674.75;5111739;28;20040;-59
2022/05/22 04:12:09;;;;;;;8.10;6.15;;;;;;;15.16;56.30;101681.28;5112051;28;20460;-58
2022/05/22 04:14:43;;;;;;;12.93;6.25;;;;;;;15.15;55.94;101690.38;5111427;28;20047;-59
2022/05/22 04:17:11;;;;;;;14.10;6.93;;;;;;;15.12;56.17;101681.63;5094923;28;20040;-59
2022/05/22 04:19:38;;;;;;;11.48;6.47;;;;;;;15.11;56.24;101685.31;5112544;28;20043;-59
2022/05/22 04:22:06;;;;;;;8.73;6.50;;;;;;;15.09;56.28;101679.16;5127873;27;20154;-59
2022/05/22 04:27:28;;;;;;;11.48;6.05;;;;;;;15.06;56.19;101672.13;5114567;27;20497;-58
2022/05/22 04:29:56;;;;;;;9.60;6.03;;;;;;;15.07;56.25;101668.44;5114664;27;20066;-58
2022/05/22 04:32:25;;;;;;;9.20;6.18;;;;;;;15.10;56.58;101661.94;5114381;27;20051;-59
2022/05/22 04:34:57;;;;;;;10.73;6.78;;;;;;;15.12;56.16;101665.41;5114363;27;20042;-58
2022/05/22 04:37:24;;;;;;;9.50;6.15;;;;;;;15.14;56.45;101666.13;5114538;27;20039;-59
2022/05/22 04:39:57;;;;;;;9.20;5.90;;;;;;;15.15;56.54;101668.72;5114653;27;20039;-59
2022/05/22 04:42:24;;;;;;;9.15;6.32;;;;;;;15.17;56.14;101672.19;5114132;27;20043;-59
2022/05/22 04:44:50;;;;;;;11.48;6.90;;;;;;;15.20;56.65;101669.22;5113458;27;20443;-58
2022/05/22 04:47:22;;;;;;;10.57;6.95;;;;;;;15.24;56.59;101672.56;5115998;27;20550;-58
2022/05/22 04:50:16;;;;;;;12.30;7.38;;;;;;;15.26;56.57;101668.75;5108530;27;20058;-59
2022/05/22 04:53:16;;;;;;;10.57;7.70;;;;;;;15.31;56.87;101672.94;5110025;27;20405;-59
2022/05/22 04:56:03;;;;;;;11.95;8.13;;;;;;;15.33;56.77;101670.97;5114056;27;20074;-59
2022/05/22 04:58:36;;;;;;;11.68;8.25;;;;;;;15.35;56.82;101679.84;5114330;27;20138;-59
2022/05/22 05:01:10;;;;;;;13.43;8.95;;;;;;;15.36;56.87;101670.75;5114691;27;20036;-59
2022/05/22 05:04:02;;;;;;;15.55;8.88;;;;;;;15.40;57.12;101666.81;5131556;27;20051;-59
2022/05/22 05:06:42;;;;;;;13.73;8.25;;;;;;;15.44;56.92;101671.00;5110343;28;20070;-59
2022/05/22 05:09:31;;;;;;;12.40;8.50;;;;;;;15.47;57.24;101670.75;5112236;28;20443;-59
2022/05/22 05:12:00;;;;;;;12.55;8.52;;;;;;;15.49;57.47;101666.09;5110936;28;20451;-58
2022/05/22 05:14:32;;;;;;;13.95;8.88;;;;;;;15.52;57.58;101653.19;5110553;28;20045;-58
2022/05/22 05:16:59;;;;;;;12.43;8.60;;;;;;;15.59;57.56;101650.88;5104981;28;20036;-58
2022/05/22 05:19:26;;;;;;;16.95;9.10;;;;;;;15.65;57.44;101655.84;5111598;28;20074;-59
2022/05/22 05:21:56;;;;;;;11.25;8.88;;;;;;;15.70;57.51;101661.75;5113739;28;20039;-59
2022/05/22 05:24:24;;;;;;;15.45;8.23;;;;;;;15.76;57.91;101660.41;5132475;28;20045;-59
2022/05/22 05:26:54;;;;;;;13.90;9.15;;;;;;;15.82;57.63;101659.91;5095378;28;20032;-59
2022/05/22 05:29:47;;;;;;;14.35;8.65;;;;;;;15.89;57.51;101659.28;5121147;28;20038;-59
2022/05/22 05:32:21;;;;;;;14.27;8.35;;;;;;;15.96;57.86;101661.50;5108004;28;20035;-59
2022/05/22 05:35:00;;;;;;;10.00;8.93;;;;;;;15.99;57.56;101653.97;5129264;27;20044;-59
2022/05/22 05:37:31;;;;;;;11.00;8.18;;;;;;;16.07;58.06;101661.50;5115576;27;20028;-59
2022/05/22 05:40:15;;;;;;;14.43;8.52;;;;;;;16.13;57.91;101663.69;5113623;27;20409;-59
2022/05/22 05:42:42;;;;;;;15.15;9.38;;;;;;;16.16;57.94;101668.88;5115617;27;20080;-59
2022/05/22 05:45:13;;;;;;;14.05;8.85;;;;;;;16.19;57.83;101668.63;5117163;27;20042;-59
2022/05/22 05:47:47;;;;;;;13.65;8.98;;;;;;;16.24;57.98;101663.69;5142652;27;20044;-59
2022/05/22 05:50:28;;;;;;;13.30;9.10;;;;;;;16.31;58.27;101664.91;5112982;27;20043;-59
2022/05/22 05:53:07;;;;;;;13.07;8.15;;;;;;;16.39;58.10;101659.75;5117657;27;20074;-59
2022/05/22 05:55:52;;;;;;;18.30;8.85;;;;;;;16.49;58.09;101665.25;5135857;27;20047;-59
2022/05/22 05:58:45;;;;;;;15.48;8.48;;;;;;;16.62;58.07;101662.41;5117734;27;20065;-59
2022/05/22 06:01:21;;;;;;;12.85;8.95;;;;;;;16.71;58.10;101661.66;5117409;27;20471;-59
2022/05/22 06:03:53;;;;;;;14.38;9.13;;;;;;;16.80;58.11;101666.31;5117570;27;20059;-61
2022/05/22 06:06:21;;;;;;;17.30;9.27;;;;;;;16.88;57.84;101666.53;5117003;27;20534;-59
2022/05/22 06:08:48;;;;;;;14.07;8.65;;;;;;;16.99;58.04;101674.59;5117382;27;20043;-59
2022/05/22 06:11:32;;;;;;;14.50;8.02;;;;;;;17.11;58.04;101665.44;5117308;27;20141;-59
2022/05/22 06:14:10;;;;;;;11.65;7.63;;;;;;;17.27;57.95;101662.28;5117184;27;20508;-59
2022/05/22 06:16:37;;;;;;;13.85;7.55;;;;;;;17.45;58.12;101659.81;5113342;28;20043;-60
2022/05/22 06:19:12;;;;;;;8.70;6.93;;;;;;;17.65;57.41;101667.06;5113774;28;20039;-60
2022/05/22 06:21:44;;;;;;;16.25;8.32;;;;;;;17.86;57.60;101663.53;5113743;28;20040;-59
2022/05/22 06:24:14;;;;;;;15.95;7.60;;;;;;;18.03;57.59;101666.47;5113691;28;20047;-59
2022/05/22 06:26:59;;;;;;;11.68;7.45;;;;;;;18.24;57.17;101660.94;5115279;27;20120;-60
2022/05/22 06:29:48;;;;;;;9.45;6.50;;;;;;;18.41;56.92;101664.84;5096463;28;20105;-59
2022/05/22 06:32:20;;;;;;;9.77;6.97;;;;;;;18.60;56.78;101667.63;5114818;28;20048;-59
2022/05/22 06:35:09;;;;;;;13.20;7.43;;;;;;;18.86;56.06;101664.41;5114004;28;20054;-59
2022/05/22 06:37:45;;;;;;;13.07;7.57;;;;;;;19.02;56.31;101664.69;5096360;28;20048;-59
2022/05/22 06:40:30;;;;;;;10.05;6.53;;;;;;;19.16;56.00;101664.25;5130507;27;20112;-59
2022/05/22 06:43:32;;;;;;;12.73;6.50;;;;;;;19.32;56.10;101671.81;5107176;27;20054;-59
2022/05/22 06:46:19;;;;;;;;;;;;;;;19.47;55.45;101673.09;5135460;27;20104;-59
2022/05/22 06:49:04;;;;;;;14.77;6.65;;;;;;;19.67;55.04;101672.09;5135210;27;19926;-59
2022/05/22 06:51:54;;;;;;;12.00;7.20;;;;;;;19.81;54.77;101664.44;5120155;27;20055;-59
2022/05/22 06:54:37;;;;;;;14.15;6.95;;;;;;;19.95;54.86;101667.53;5116603;27;20084;-60
2022/05/22 06:57:20;;;;;;;9.88;6.00;;;;;;;20.12;54.42;101671.38;5134970;27;20420;-61
2022/05/22 07:00:08;;;;;;;13.73;7.22;;;;;;;20.31;54.33;101681.31;5135261;27;20409;-61
2022/05/22 07:03:04;;;;;;;11.15;6.60;;;;;;;20.44;54.12;101672.78;5134024;27;20042;-64
2022/05/22 07:05:49;;;;;;;14.13;6.55;;;;;;;20.63;53.66;101676.25;5134921;27;20058;-62
2022/05/22 07:08:48;;;;;;;11.65;6.63;;;;;;;20.80;53.12;101662.78;5116552;27;20184;-63
2022/05/22 07:11:39;;;;;;;11.88;5.93;;;;;;;20.93;52.59;101666.88;5134415;27;20096;-62
2022/05/22 07:14:36;;;;;;;12.38;6.30;;;;;;;21.13;52.46;101670.28;5050353;28;20123;-62
2022/05/22 07:17:11;;;;;;;12.02;6.30;;;;;;;21.26;51.82;101667.16;5066713;28;20045;-62
2022/05/22 07:19:53;;;;;;;13.35;6.28;;;;;;;21.42;51.18;101670.03;5109922;28;20083;-62
2022/05/22 07:22:39;;;;;;;12.30;6.32;;;;;;;21.60;51.48;101663.69;5116947;27;20510;-62
2022/05/22 07:25:26;;;;;;;9.88;5.78;;;;;;;21.74;50.42;101665.81;5133938;27;20046;-60
2022/05/22 07:28:11;;;;;;;12.77;6.05;;;;;;;21.80;50.20;101660.56;5134725;27;20055;-61
2022/05/22 07:30:57;;;;;;;9.52;5.65;;;;;;;21.88;49.94;101660.59;5134187;27;20139;-60
2022/05/22 07:34:00;;;;;;;13.63;6.10;;;;;;;21.99;49.76;101658.59;5133730;27;20074;-61
2022/05/22 07:36:58;;;;;;;11.85;5.95;;;;;;;22.13;49.32;101661.63;5059935;27;20517;-61
2022/05/22 07:39:43;;;;;;;9.93;6.63;;;;;;;22.15;49.23;101659.56;5115314;27;20054;-61
2022/05/22 07:42:28;;;;;;;13.77;5.43;;;;;;;22.18;48.91;101653.78;5134028;27;20136;-60
2022/05/22 07:45:19;;;;;;;12.05;5.95;;;;;;;22.29;48.74;101654.50;5133145;27;20659;-61
2022/05/22 07:48:01;;;;;;;13.00;6.00;;;;;;;22.36;48.57;101644.63;5133662;27;20043;-61
2022/05/22 07:50:37;;;;;;;13.25;6.53;;;;;;;22.46;48.64;101648.94;5115038;27;20055;-61
2022/05/22 07:53:28;;;;;;;10.27;5.63;;;;;;;22.61;48.17;101646.41;5103386;27;20155;-61
2022/05/22 07:56:21;;;;;;;8.65;5.15;;;;;;;22.78;47.78;101650.03;5130062;27;20563;-61
2022/05/22 07:59:06;;;;;;;10.68;5.45;;;;;;;22.91;47.45;101655.03;5133950;27;20057;-59
2022/05/22 08:01:42;;;;;;;8.05;4.82;;;;;;;23.01;46.94;101648.34;5111366;28;20051;-60
2022/05/22 08:04:25;;;;;;;11.13;4.22;;;;;;;23.14;46.39;101646.00;5113134;28;20071;-60
2022/05/22 08:07:12;;;;;;;9.90;5.05;;;;;;;23.21;46.06;101640.69;5114206;27;20058;-60
2022/05/22 08:09:52;;;;;;;9.90;4.43;;;;;;;23.36;45.54;101638.94;5114635;27;20046;-59
2022/05/22 08:12:19;;;;;;;10.07;4.75;;;;;;;23.46;45.24;101634.13;5114964;27;20259;-60
2022/05/22 08:14:46;;;;;;;11.25;4.43;;;;;;;23.54;45.04;101632.41;5115028;27;20039;-60
2022/05/22 08:17:12;;;;;;;7.55;4.20;;;;;;;23.59;44.71;101632.78;5133333;27;20294;-60
2022/05/22 08:19:39;;;;;;;10.40;3.88;;;;;;;23.69;44.28;101622.47;5114647;27;20095;-59
2022/05/22 08:22:11;;;;;;;11.35;4.78;;;;;;;23.84;43.78;101625.38;5133753;27;20134;-60
2022/05/22 08:25:07;;;;;;;8.00;4.85;;;;;;;24.02;43.57;101617.75;5119536;27;20113;-59
2022/05/22 08:27:38;;;;;;;9.35;4.25;;;;;;;24.16;43.23;101608.75;5098458;27;20043;-60
2022/05/22 08:30:06;;;;;;;7.97;4.57;;;;;;;24.27;42.88;101608.38;5115007;27;20413;-60
2022/05/22 08:32:40;;;;;;;14.88;4.45;;;;;;;24.33;42.95;101609.56;5115111;27;20396;-60
2022/05/22 08:35:15;;;;;;;9.68;4.20;;;;;;;24.36;42.65;101599.06;5115133;27;20039;-60
2022/05/22 08:37:42;;;;;;;9.63;4.50;;;;;;;24.45;42.45;101594.38;5132867;27;20045;-60
2022/05/22 08:40:13;;;;;;;7.85;4.25;;;;;;;24.54;42.40;101586.97;5132699;27;20031;-60
2022/05/22 08:42:45;;;;;;;7.82;4.32;;;;;;;24.61;42.58;101587.94;5133789;27;20062;-59
2022/05/22 08:45:33;;;;;;;10.57;5.07;;;;;;;24.65;42.19;101581.91;5133680;27;20058;-59
2022/05/22 08:48:07;;;;;;;10.35;5.40;;;;;;;24.69;42.08;101583.25;5133777;27;20039;-59
2022/05/22 08:50:36;;;;;;;10.38;5.57;;;;;;;24.75;41.87;101569.81;5133776;27;20031;-60
2022/05/22 08:53:11;;;;;;;8.18;5.05;;;;;;;24.83;41.95;101567.84;5133729;27;20055;-59
2022/05/22 08:58:56;;;;;;;9.65;4.50;;;;;;;25.01;41.68;101568.41;5132668;27;20039;-60
2022/05/22 09:01:43;;;;;;;7.75;4.25;;;;;;;25.17;41.37;101555.53;5132230;27;20067;-60
2022/05/22 09:04:33;;;;;;;11.40;4.85;;;;;;;25.23;41.24;101557.53;5115208;27;20043;-64
2022/05/22 09:07:20;;;;;;;8.60;4.50;;;;;;;25.26;40.75;101543.41;5113749;27;20405;-61
2022/05/22 09:09:55;;;;;;;7.13;4.55;;;;;;;25.36;41.00;101545.94;5131833;27;20039;-59
2022/05/22 09:12:40;;;;;;;9.82;5.32;;;;;;;25.49;40.95;101543.38;5132624;27;20043;-59
2022/05/22 09:15:28;;;;;;;11.95;5.45;;;;;;;25.59;40.78;101541.19;5132316;28;20043;-60
2022/05/22 09:18:20;;;;;;;13.10;5.65;;;;;;;25.68;40.41;101533.72;5132139;28;20051;-60
2022/05/22 09:21:02;;;;;;;8.48;5.38;;;;;;;25.74;40.22;101536.56;5131993;28;20046;-59
2022/05/22 09:24:02;;;;;;;9.05;5.88;;;;;;;25.82;40.00;101519.94;5131949;28;20067;-59
2022/05/22 09:26:56;;;;;;;10.52;5.28;;;;;;;25.81;40.11;101522.88;5132395;28;20046;-60
2022/05/22 09:29:58;;;;;;;11.27;4.60;;;;;;;25.78;39.38;101535.13;5114411;28;20054;-59
2022/05/22 09:32:39;;;;;;;8.30;4.90;;;;;;;25.81;39.59;101528.38;5078000;28;20070;-62
2022/05/22 09:35:17;;;;;;;11.35;4.45;;;;;;;25.85;39.16;101525.06;5131296;28;20508;-61
2022/05/22 09:38:09;;;;;;;12.10;5.22;;;;;;;25.88;38.75;101521.91;5111536;28;20051;-60
2022/05/22 09:40:47;;;;;;;8.07;4.50;;;;;;;25.89;38.56;101526.38;5111602;28;20577;-61
2022/05/22 09:44:13;;;;;;;9.40;5.35;;;;;;;25.90;38.19;101522.56;5111019;28;20495;-60
2022/05/22 09:47:29;;;;;;;10.50;4.80;;;;;;;25.95;38.28;101513.75;5077566;28;20116;-61
2022/05/22 09:50:08;;;;;;;9.80;5.28;;;;;;;26.02;38.25;101509.19;5093023;28;20139;-60
2022/05/22 09:52:37;;;;;;;12.25;5.32;;;;;;;26.08;37.94;101513.91;5111077;28;20050;-60
2022/05/22 09:55:13;;;;;;;11.30;4.88;;;;;;;26.08;37.65;101508.41;5113955;28;20035;-60
2022/05/22 09:58:15;;;;;;;11.38;4.93;;;;;;;26.11;37.38;101516.28;5123187;28;20447;-60
2022/05/22 10:01:03;;;;;;;15.45;5.70;;;;;;;26.14;37.66;101506.78;5086116;28;20074;-60
2022/05/22 10:04:07;;;;;;;9.13;4.90;;;;;;;26.15;37.42;101512.09;5111527;28;20039;-60
2022/05/22 10:06:40;;;;;;;12.55;5.28;;;;;;;26.13;37.50;101505.09;5111459;28;20397;-60
2022/05/22 10:09:40;;;;;;;10.52;4.82;;;;;;;26.13;37.65;101511.44;5108721;28;20039;-60
2022/05/22 10:12:37;;;;;;;9.63;5.55;;;;;;;26.08;37.59;101515.81;5111600;28;20040;-60
2022/05/22 10:15:36;;;;;;;11.10;5.82;;;;;;;25.98;37.41;101505.94;5028333;28;20525;-61
2022/05/22 10:18:34;;;;;;;8.77;5.63;;;;;;;25.85;37.38;101505.78;5073040;28;20055;-60
2022/05/22 10:21:23;;;;;;;10.98;6.07;;;;;;;25.77;37.31;101514.16;5115566;28;20040;-60
2022/05/22 10:24:21;;;;;;;12.52;6.88;;;;;;;25.69;37.41;101497.75;5115273;28;20062;-60
2022/05/22 10:27:11;;;;;;;11.50;6.03;;;;;;;25.60;36.96;101507.13;5115151;28;20039;-60
2022/05/22 10:29:46;;;;;;;9.60;5.68;;;;;;;25.44;37.10;101493.59;5119010;27;20042;-60
2022/05/22 10:32:33;;;;;;;8.93;6.10;;;;;;;25.32;37.15;101495.97;5115191;28;20051;-59
2022/05/22 10:35:22;;;;;;;8.43;5.50;;;;;;;25.28;37.54;101491.88;5096541;28;20040;-59
2022/05/22 10:38:07;;;;;;;11.45;6.10;;;;;;;25.33;38.06;101490.28;5115068;28;20040;-59
2022/05/22 10:43:24;;;;;;;11.63;6.90;;;;;;;25.40;37.25;101487.63;5104050;27;20212;-59
2022/05/22 10:45:52;;;;;;;10.80;6.35;;;;;;;25.37;37.16;101481.63;5135307;27;20039;-60
2022/05/22 10:48:23;;;;;;;9.88;6.00;;;;;;;25.42;37.21;101473.66;5135306;27;20507;-59
2022/05/22 10:51:03;;;;;;;16.92;6.57;;;;;;;25.45;37.31;101465.88;5134368;27;20048;-60
2022/05/22 10:53:34;;;;;;;10.98;6.05;;;;;;;25.44;37.48;101460.59;5135008;27;20451;-59
2022/05/22 10:56:12;;;;;;;8.30;6.13;;;;;;;25.40;37.50;101462.88;5135376;27;20046;-59
2022/05/22 10:58:48;;;;;;;8.65;6.30;;;;;;;25.50;37.13;101451.56;5134712;27;20405;-59
2022/05/22 11:01:18;;;;;;;8.90;5.35;;;;;;;25.60;36.92;101444.72;5134790;27;20050;-59
2022/05/22 11:04:07;;;;;;;12.80;6.25;;;;;;;25.67;36.99;101433.81;5134818;27;20031;-60
2022/05/22 11:06:38;;;;;;;9.07;5.45;;;;;;;25.81;37.29;101440.34;5134851;27;20047;-59
2022/05/22 11:09:07;;;;;;;12.15;5.80;;;;;;;25.97;37.12;101432.69;5134725;27;20396;-59
2022/05/22 11:11:35;;;;;;;12.73;6.45;;;;;;;26.13;36.51;101430.75;5134676;27;20051;-59
2022/05/22 11:14:15;;;;;;;13.50;6.50;;;;;;;26.18;36.50;101423.59;5116724;27;20047;-59
2022/05/22 11:16:42;;;;;;;11.60;5.82;;;;;;;26.29;36.44;101416.72;5117084;27;20046;-60
2022/05/22 11:19:25;;;;;;;11.82;4.95;;;;;;;26.39;36.30;101427.41;5135659;27;20039;-60
2022/05/22 11:22:15;;;;;;;8.77;5.65;;;;;;;26.43;36.64;101417.72;5135878;27;20126;-59
2022/05/22 11:24:50;;;;;;;9.00;5.63;;;;;;;26.57;36.47;101414.00;5135382;27;20047;-59
2022/05/22 11:27:49;;;;;;;12.85;6.28;;;;;;;26.75;36.60;101421.78;5135660;27;20047;-60
2022/05/22 11:30:49;;;;;;;8.38;5.45;;;;;;;27.03;36.68;101414.38;5116330;28;20058;-59
2022/05/22 11:34:04;;;;;;;9.77;5.70;;;;;;;27.23;36.41;101414.50;5042403;28;20552;-60
2022/05/22 11:36:45;;;;;;;10.95;5.60;;;;;;;27.42;35.56;101410.97;5114713;28;20097;-60
2022/05/22 11:39:41;;;;;;;7.68;5.20;;;;;;;27.57;35.20;101405.31;5129931;27;20130;-60
2022/05/22 11:42:31;;;;;;;9.45;5.35;;;;;;;27.74;34.77;101394.78;5135153;27;20050;-60
2022/05/22 11:45:34;;;;;;;8.75;5.43;;;;;;;27.87;34.95;101405.88;5135049;27;20043;-59
2022/05/22 11:48:22;;;;;;;9.43;5.97;;;;;;;27.88;34.92;101401.19;5135061;27;20043;-60
2022/05/22 11:51:10;;;;;;;8.57;4.47;;;;;;;27.77;34.49;101394.38;5134621;27;20412;-60
2022/05/22 11:54:00;;;;;;;9.70;4.85;;;;;;;27.74;34.03;101395.66;5134777;27;20047;-60
2022/05/22 11:56:49;;;;;;;9.65;4.95;;;;;;;27.74;34.05;101384.59;5133309;27;20062;-60
2022/05/22 11:59:52;;;;;;;7.63;4.45;;;;;;;27.87;33.84;101386.53;5135185;27;20050;-60
2022/05/22 12:02:37;;;;;;;6.68;4.10;;;;;;;27.93;33.61;101377.41;5134452;27;20507;-60
2022/05/22 12:05:24;;;;;;;6.43;3.80;;;;;;;28.02;33.52;101367.03;5130796;27;20035;-59
2022/05/22 12:07:58;;;;;;;7.40;4.10;;;;;;;28.15;33.31;101359.59;5133187;27;20032;-59
2022/05/22 12:10:35;;;;;;;10.32;4.82;;;;;;;28.27;32.77;101356.25;5134135;27;20485;-59
2022/05/22 12:13:29;;;;;;;8.75;4.55;;;;;;;28.34;32.85;101352.44;5134236;27;20043;-60
2022/05/22 12:16:12;;;;;;;9.60;5.15;;;;;;;28.38;32.60;101352.84;5134210;27;20054;-60
2022/05/22 12:18:55;;;;;;;10.15;5.70;;;;;;;28.38;32.83;101347.31;5124973;27;20050;-60
2022/05/22 12:21:49;;;;;;;11.82;5.50;;;;;;;28.40;32.70;101345.19;5128964;27;20039;-61